createdAt,value
2023-02-16T00:01:59.010Z,48.50
2023-02-16T00:04:31.046Z,53.25
2023-02-16T00:06:57.642Z,44.75
2023-02-16T00:09:24.761Z,49.78
2023-02-16T00:12:11.190Z,51.83
2023-02-16T00:14:39.091Z,47.83
2023-02-16T00:17:06.277Z,40.25
2023-02-16T00:19:40.851Z,46.08
2023-02-16T00:24:34.807Z,49.78
2023-02-16T00:27:01.789Z,46.33
2023-02-16T00:29:31.590Z,40.63
2023-02-16T00:32:00.501Z,46.30
2023-02-16T00:34:34.887Z,42.83
2023-02-16T00:37:10.487Z,42.92
2023-02-16T00:39:37.843Z,41.95
2023-02-16T00:42:16.955Z,44.55
2023-02-16T00:44:46.524Z,47.05
2023-02-16T00:47:28.605Z,43.60
2023-02-16T00:49:55.386Z,44.80
2023-02-16T00:52:29.328Z,47.10
2023-02-16T00:54:56.500Z,44.80
2023-02-16T00:57:23.812Z,57.72
2023-02-16T01:00:00.462Z,44.45
2023-02-16T01:02:27.120Z,49.78
2023-02-16T01:04:53.973Z,44.70
2023-02-16T01:07:39.274Z,54.85
2023-02-16T01:10:25.210Z,57.58
2023-02-16T01:12:51.645Z,47.28
2023-02-16T01:15:23.138Z,48.42
2023-02-16T01:17:49.601Z,56.90
2023-02-16T01:20:18.727Z,46.13
2023-02-16T01:22:45.191Z,48.15
2023-02-16T01:25:11.660Z,47.35
2023-02-16T01:27:39.355Z,49.53
2023-02-16T01:30:08.139Z,47.85
2023-02-16T01:32:34.597Z,45.78
2023-02-16T01:35:00.951Z,49.03
2023-02-16T01:37:27.446Z,41.58
2023-02-16T01:39:53.898Z,43.42
2023-02-16T01:42:54.922Z,46.70
2023-02-16T01:45:32.808Z,45.15
2023-02-16T01:48:07.092Z,44.72
2023-02-16T01:50:49.658Z,42.40
2023-02-16T01:53:23.945Z,41.92
2023-02-16T01:55:56.696Z,54.33
2023-02-16T01:58:43.115Z,38.92
2023-02-16T02:01:34.462Z,49.15
2023-02-16T02:04:20.271Z,46.17
2023-02-16T02:06:47.585Z,50.42
2023-02-16T02:09:21.094Z,42.45
2023-02-16T02:12:00.547Z,49.90
2023-02-16T02:14:32.655Z,37.33
2023-02-16T02:17:03.492Z,41.30
2023-02-16T02:19:38.785Z,47.10
2023-02-16T02:22:39.166Z,44.30
2023-02-16T02:25:36.080Z,48.05
2023-02-16T02:28:26.116Z,47.65
2023-02-16T02:31:07.797Z,44.13
2023-02-16T02:34:01.531Z,44.28
2023-02-16T02:36:42.615Z,47.88
2023-02-16T02:39:24.080Z,47.03
2023-02-16T02:42:06.620Z,46.42
2023-02-16T02:45:02.061Z,57.85
2023-02-16T02:47:40.083Z,53.25
2023-02-16T02:50:30.910Z,45.17
2023-02-16T02:53:00.774Z,48.83
2023-02-16T02:55:49.169Z,47.55
2023-02-16T02:58:35.892Z,45.78
2023-02-16T03:01:03.409Z,50.47
2023-02-16T03:03:34.129Z,46.97
2023-02-16T03:06:06.200Z,48.28
2023-02-16T03:08:35.086Z,46.05
2023-02-16T03:11:40.475Z,45.63
2023-02-16T03:14:13.990Z,44.50
2023-02-16T03:17:13.203Z,54.30
2023-02-16T03:20:04.169Z,46.58
2023-02-16T03:22:51.424Z,51.78
2023-02-16T03:25:37.449Z,54.05
2023-02-16T03:28:26.583Z,48.63
2023-02-16T03:30:54.220Z,55.83
2023-02-16T03:33:22.262Z,50.90
2023-02-16T03:35:49.695Z,56.80
2023-02-16T03:38:16.727Z,48.67
2023-02-16T03:40:45.091Z,48.55
2023-02-16T03:43:11.557Z,50.65
2023-02-16T03:45:41.190Z,45.83
2023-02-16T03:48:08.119Z,50.95
2023-02-16T03:50:34.803Z,45.53
2023-02-16T03:53:07.229Z,50.75
2023-02-16T03:55:39.702Z,54.92
2023-02-16T03:58:08.994Z,53.28
2023-02-16T04:00:36.433Z,56.17
2023-02-16T04:03:04.400Z,59.28
2023-02-16T04:05:31.312Z,56.80
2023-02-16T04:07:57.712Z,54.75
2023-02-16T04:10:24.912Z,52.80
2023-02-16T04:12:51.335Z,53.08
2023-02-16T04:15:20.640Z,56.60
2023-02-16T04:17:47.482Z,52.00
2023-02-16T04:20:17.442Z,53.95
2023-02-16T04:22:44.626Z,66.38
2023-02-16T04:25:11.463Z,62.95
2023-02-16T04:27:38.738Z,56.90
2023-02-16T04:30:07.529Z,57.78
2023-02-16T04:32:33.957Z,59.13
2023-02-16T04:35:00.345Z,66.07
2023-02-16T04:37:26.711Z,60.72
2023-02-16T04:39:53.196Z,61.22
2023-02-16T04:42:19.602Z,56.90
2023-02-16T04:44:46.049Z,61.45
2023-02-16T04:47:12.526Z,58.35
2023-02-16T04:49:38.913Z,65.38
2023-02-16T04:52:06.114Z,66.60
2023-02-16T04:54:33.259Z,69.95
2023-02-16T04:57:00.877Z,67.00
2023-02-16T04:59:27.323Z,62.15
2023-02-16T05:01:53.849Z,67.03
2023-02-16T05:04:20.356Z,59.88
2023-02-16T05:06:47.109Z,61.05
2023-02-16T05:09:13.522Z,63.40
2023-02-16T05:11:58.326Z,59.15
2023-02-16T05:14:43.304Z,56.63
2023-02-16T05:17:13.879Z,61.58
2023-02-16T05:19:41.095Z,54.15
2023-02-16T05:22:10.090Z,57.25
2023-02-16T05:24:37.174Z,54.15
2023-02-16T05:27:05.676Z,68.35
2023-02-16T05:29:32.435Z,54.22
2023-02-16T05:32:00.278Z,59.58
2023-02-16T05:34:27.426Z,60.25
2023-02-16T05:36:54.930Z,53.65
2023-02-16T05:39:22.263Z,65.25
2023-02-16T05:41:49.860Z,52.35
2023-02-16T05:44:17.246Z,60.25
2023-02-16T05:46:43.721Z,55.17
2023-02-16T05:49:10.749Z,50.45
2023-02-16T05:51:37.944Z,54.42
2023-02-16T05:54:05.367Z,64.22
2023-02-16T05:56:32.017Z,55.47
2023-02-16T05:59:00.311Z,57.90
2023-02-16T06:01:28.629Z,60.67
2023-02-16T06:03:55.456Z,59.13
2023-02-16T06:06:22.084Z,56.97
2023-02-16T06:08:48.573Z,46.30
2023-02-16T06:11:33.490Z,59.60
2023-02-16T06:16:27.473Z,61.88
2023-02-16T06:18:54.878Z,54.60
2023-02-16T06:21:22.467Z,47.08
2023-02-16T06:23:49.519Z,59.25
2023-02-16T06:26:16.280Z,55.03
2023-02-16T06:28:42.802Z,62.28
2023-02-16T06:31:10.133Z,58.42
2023-02-16T06:33:36.628Z,66.47
2023-02-16T06:36:03.717Z,57.97
2023-02-16T06:38:30.242Z,54.63
2023-02-16T06:40:56.637Z,58.38
2023-02-16T06:43:23.026Z,57.95
2023-02-16T06:45:49.714Z,62.00
2023-02-16T06:48:16.201Z,54.80
2023-02-16T06:50:42.584Z,56.40
2023-02-16T06:53:09.111Z,65.10
2023-02-16T06:55:36.714Z,63.22
2023-02-16T06:58:07.245Z,63.42
2023-02-16T07:00:34.685Z,66.05
2023-02-16T07:03:01.715Z,59.08
2023-02-16T07:05:28.711Z,54.08
2023-02-16T07:07:55.239Z,62.58
2023-02-16T07:10:21.723Z,66.68
2023-02-16T07:12:48.764Z,54.13
2023-02-16T07:15:15.804Z,58.97
2023-02-16T07:17:42.290Z,54.45
2023-02-16T07:20:09.275Z,56.22
2023-02-16T07:22:35.785Z,60.70
2023-02-16T07:25:02.347Z,52.83
2023-02-16T07:27:28.758Z,63.10
2023-02-16T07:29:55.458Z,56.05
2023-02-16T07:32:21.938Z,61.22
2023-02-16T07:34:48.582Z,52.08
2023-02-16T07:37:15.022Z,54.15
2023-02-16T07:39:41.447Z,61.78
2023-02-16T07:42:07.863Z,64.47
2023-02-16T07:44:34.285Z,57.05
2023-02-16T07:47:00.678Z,63.17
2023-02-16T07:49:27.076Z,59.03
2023-02-16T07:51:53.696Z,61.58
2023-02-16T07:54:20.199Z,61.90
2023-02-16T07:56:47.059Z,66.88
2023-02-16T07:59:16.296Z,59.15
2023-02-16T08:01:42.762Z,53.78
2023-02-16T08:04:09.558Z,67.25
2023-02-16T08:06:36.100Z,61.20
2023-02-16T08:09:03.216Z,51.70
2023-02-16T08:11:29.791Z,56.40
2023-02-16T08:13:59.031Z,59.47
2023-02-16T08:16:28.011Z,64.18
2023-02-16T08:18:58.785Z,55.35
2023-02-16T08:21:28.487Z,52.70
2023-02-16T08:24:06.318Z,61.22
2023-02-16T08:26:44.703Z,50.72
2023-02-16T08:29:13.117Z,51.00
2023-02-16T08:31:39.802Z,54.55
2023-02-16T08:34:06.946Z,55.15
2023-02-16T08:36:36.226Z,54.35
2023-02-16T08:39:06.313Z,44.72
2023-02-16T08:41:34.967Z,48.70
2023-02-16T08:44:02.274Z,53.30
2023-02-16T08:46:29.998Z,41.50
2023-02-16T08:48:58.450Z,47.97
2023-02-16T08:51:25.966Z,52.38
2023-02-16T08:53:52.507Z,48.60
2023-02-16T08:56:19.880Z,46.67
2023-02-16T08:58:46.812Z,48.30
2023-02-16T09:01:15.340Z,44.83
2023-02-16T09:03:43.329Z,42.00
2023-02-16T09:06:12.366Z,44.08
2023-02-16T09:08:39.756Z,41.08
2023-02-16T09:11:11.296Z,45.75
2023-02-16T09:13:39.673Z,39.28
2023-02-16T09:16:11.471Z,42.03
2023-02-16T09:18:38.699Z,49.40
2023-02-16T09:21:11.698Z,41.08
2023-02-16T09:23:39.878Z,38.65
2023-02-16T09:26:08.117Z,35.55
2023-02-16T09:28:35.658Z,44.45
2023-02-16T09:31:25.679Z,39.10
2023-02-16T09:33:54.110Z,42.72
2023-02-16T09:36:20.552Z,44.97
2023-02-16T09:38:50.220Z,39.40
2023-02-16T09:41:54.616Z,36.55
2023-02-16T09:44:33.268Z,37.03
2023-02-16T09:47:04.792Z,34.85
2023-02-16T09:49:36.965Z,32.90
2023-02-16T09:52:37.116Z,31.98
2023-02-16T09:55:11.665Z,26.70
2023-02-16T09:58:01.139Z,27.13
2023-02-16T10:00:33.207Z,27.40
2023-02-16T10:03:37.404Z,30.27
2023-02-16T10:06:24.247Z,31.55
2023-02-16T10:08:55.366Z,38.03
2023-02-16T10:11:40.588Z,28.48
2023-02-16T10:14:47.155Z,31.77
2023-02-16T10:17:33.810Z,31.42
2023-02-16T10:20:17.915Z,42.60
2023-02-16T10:22:48.956Z,33.15
2023-02-16T10:25:25.010Z,38.50
2023-02-16T10:28:04.095Z,34.33
2023-02-16T10:30:32.588Z,35.10
2023-02-16T10:33:15.975Z,31.98
2023-02-16T10:35:48.182Z,35.70
2023-02-16T10:38:33.265Z,32.97
2023-02-16T10:41:32.954Z,30.98
2023-02-16T10:44:15.452Z,30.45
2023-02-16T10:46:47.127Z,32.65
2023-02-16T10:49:15.716Z,39.45
2023-02-16T10:51:48.959Z,31.23
2023-02-16T10:54:30.785Z,34.65
2023-02-16T10:57:01.099Z,30.90
2023-02-16T10:59:39.022Z,34.95
2023-02-16T11:02:47.165Z,35.17
2023-02-16T11:05:38.347Z,36.88
2023-02-16T11:08:08.132Z,36.88
2023-02-16T11:10:41.303Z,33.05
2023-02-16T11:13:20.105Z,37.40
2023-02-16T11:15:52.448Z,34.63
2023-02-16T11:18:33.107Z,37.65
2023-02-16T11:21:00.005Z,43.85
2023-02-16T11:23:31.990Z,40.15
2023-02-16T11:26:03.685Z,40.95
2023-02-16T11:28:36.071Z,39.85
2023-02-16T11:31:11.826Z,40.60
2023-02-16T11:33:40.298Z,36.30
2023-02-16T11:36:24.275Z,35.70
2023-02-16T11:39:09.285Z,32.78
2023-02-16T11:41:37.517Z,31.05
2023-02-16T11:44:04.422Z,35.60
2023-02-16T11:46:39.459Z,32.97
2023-02-16T11:49:27.500Z,29.83
2023-02-16T11:51:53.975Z,28.48
2023-02-16T11:54:20.950Z,30.00
2023-02-16T11:57:03.461Z,25.98
2023-02-16T11:59:35.881Z,35.70
2023-02-16T12:02:20.644Z,30.65
2023-02-16T12:07:59.602Z,30.08
2023-02-16T12:10:55.380Z,28.92
2023-02-16T12:13:36.815Z,27.55
2023-02-16T12:16:34.471Z,23.48
2023-02-16T12:19:28.322Z,20.13
2023-02-16T12:22:07.374Z,12.75
2023-02-16T12:24:58.083Z,17.42
2023-02-16T12:27:35.619Z,12.40
2023-02-16T12:30:28.028Z,10.45
2023-02-16T12:33:09.599Z,9.05
2023-02-16T12:36:11.812Z,8.45
2023-02-16T12:38:59.541Z,10.10
2023-02-16T12:41:35.503Z,11.68
2023-02-16T12:44:15.325Z,14.40
2023-02-16T12:46:44.796Z,18.88
2023-02-16T12:49:25.178Z,15.15
2023-02-16T12:52:23.974Z,15.93
2023-02-16T12:54:55.405Z,17.52
2023-02-16T12:57:26.048Z,14.85
2023-02-16T13:00:05.315Z,19.10
2023-02-16T13:02:40.567Z,15.25
2023-02-16T13:05:25.970Z,17.00
2023-02-16T13:08:02.194Z,17.38
2023-02-16T13:10:56.363Z,16.70
2023-02-16T13:13:27.306Z,15.27
2023-02-16T13:16:09.529Z,14.80
2023-02-16T13:18:44.235Z,16.65
2023-02-16T13:21:19.399Z,16.10
2023-02-16T13:24:04.300Z,18.17
2023-02-16T13:26:49.058Z,16.67
2023-02-16T13:32:33.699Z,18.42
2023-02-16T13:35:30.025Z,22.20
2023-02-16T13:38:28.843Z,19.33
2023-02-16T13:41:34.653Z,24.08
2023-02-16T13:44:12.843Z,22.83
2023-02-16T13:46:53.949Z,24.63
2023-02-16T13:49:31.662Z,25.75
2023-02-16T13:51:59.462Z,24.95
2023-02-16T13:54:35.609Z,26.75
2023-02-16T13:57:04.346Z,22.25
2023-02-16T13:59:37.000Z,22.33
2023-02-16T14:02:09.383Z,24.85
2023-02-16T14:04:35.950Z,22.00
2023-02-16T14:07:07.237Z,25.65
2023-02-16T14:09:39.847Z,31.77
2023-02-16T14:12:09.418Z,27.98
2023-02-16T14:14:56.542Z,30.23
2023-02-16T14:17:26.081Z,24.75
2023-02-16T14:19:57.122Z,31.00
2023-02-16T14:22:43.784Z,27.38
2023-02-16T14:25:22.537Z,29.80
2023-02-16T14:27:53.574Z,28.17
2023-02-16T14:30:27.234Z,29.60
2023-02-16T14:33:05.524Z,30.98
2023-02-16T14:35:37.088Z,28.90
2023-02-16T14:38:08.010Z,30.48
2023-02-16T14:40:52.881Z,33.83
2023-02-16T14:48:51.556Z,24.75
2023-02-16T14:51:50.885Z,30.42
2023-02-16T14:54:31.870Z,33.50
2023-02-16T14:57:18.504Z,29.33
2023-02-16T14:59:47.771Z,32.22
2023-02-16T15:02:35.327Z,31.80
2023-02-16T15:05:19.580Z,32.33
2023-02-16T15:07:54.635Z,34.83
2023-02-16T15:10:26.804Z,33.00
2023-02-16T15:12:55.269Z,31.30
2023-02-16T15:15:27.870Z,36.30
2023-02-16T15:17:55.953Z,32.97
2023-02-16T15:20:36.652Z,35.78
2023-02-16T15:23:17.170Z,38.28
2023-02-16T15:25:53.347Z,37.10
2023-02-16T15:28:22.696Z,31.67
2023-02-16T15:31:01.478Z,36.92
2023-02-16T15:33:52.891Z,31.65
2023-02-16T15:36:24.461Z,34.28
2023-02-16T15:38:57.243Z,35.70
2023-02-16T15:41:35.166Z,36.00
2023-02-16T15:44:03.801Z,35.40
2023-02-16T15:46:37.025Z,37.28
2023-02-16T15:49:13.734Z,34.05
2023-02-16T15:51:41.683Z,29.25
2023-02-16T15:54:21.893Z,28.52
2023-02-16T15:56:51.447Z,30.27
2023-02-16T15:59:50.064Z,26.05
2023-02-16T16:02:22.058Z,27.15
2023-02-16T16:04:55.258Z,28.85
2023-02-16T16:07:31.983Z,29.48
2023-02-16T16:10:00.274Z,26.98
2023-02-16T16:12:27.196Z,29.73
2023-02-16T16:15:01.208Z,22.88
2023-02-16T16:17:30.995Z,23.80
2023-02-16T16:19:58.950Z,23.77
2023-02-16T16:22:34.278Z,24.30
2023-02-16T16:25:01.290Z,22.88
2023-02-16T16:27:31.476Z,22.38
2023-02-16T16:30:13.950Z,24.05
2023-02-16T16:32:40.490Z,25.15
2023-02-16T16:35:33.544Z,24.98
2023-02-16T16:38:00.343Z,22.48
2023-02-16T16:40:33.299Z,20.25
2023-02-16T16:43:02.777Z,21.88
2023-02-16T16:45:45.303Z,20.60
2023-02-16T16:48:25.137Z,22.58
2023-02-16T16:51:10.125Z,20.63
2023-02-16T16:56:22.179Z,20.23
2023-02-16T16:58:53.217Z,21.25
2023-02-16T17:01:21.053Z,22.63
2023-02-16T17:03:47.758Z,23.88
2023-02-16T17:06:14.309Z,18.48
2023-02-16T17:08:41.889Z,18.77
2023-02-16T17:11:13.138Z,20.10
2023-02-16T17:13:39.680Z,18.98
2023-02-16T17:16:16.439Z,16.95
2023-02-16T17:18:42.971Z,20.45
2023-02-16T17:21:13.425Z,16.63
2023-02-16T17:23:45.244Z,16.40
2023-02-16T17:26:17.026Z,14.70
2023-02-16T17:28:43.508Z,15.68
2023-02-16T17:31:10.712Z,14.93
2023-02-16T17:33:37.176Z,14.93
2023-02-16T17:36:05.598Z,15.77
2023-02-16T17:38:32.355Z,16.40
2023-02-16T17:40:58.972Z,14.63
2023-02-16T17:43:26.456Z,15.73
2023-02-16T17:45:55.510Z,14.13
2023-02-16T17:48:26.465Z,13.73
2023-02-16T17:50:53.824Z,15.57
2023-02-16T17:53:23.301Z,14.40
2023-02-16T17:55:51.974Z,11.20
2023-02-16T17:58:19.600Z,15.90
2023-02-16T18:00:47.228Z,14.27
2023-02-16T18:03:14.193Z,13.75
2023-02-16T18:05:40.678Z,16.13
2023-02-16T18:08:07.489Z,12.85
2023-02-16T18:10:49.145Z,20.27
2023-02-16T18:13:16.274Z,12.48
2023-02-16T18:15:45.793Z,18.00
2023-02-16T18:18:13.461Z,17.95
2023-02-16T18:20:40.648Z,16.38
2023-02-16T18:23:07.207Z,20.00
2023-02-16T18:25:33.732Z,19.67
2023-02-16T18:28:00.597Z,19.90
2023-02-16T18:30:27.339Z,23.77
2023-02-16T18:32:53.894Z,21.40
2023-02-16T18:35:20.382Z,25.33
2023-02-16T18:37:47.600Z,22.67
2023-02-16T18:40:19.469Z,19.75
2023-02-16T18:42:47.560Z,22.25
2023-02-16T18:45:14.346Z,21.23
2023-02-16T18:47:40.893Z,19.98
2023-02-16T18:50:07.979Z,25.13
2023-02-16T18:52:34.436Z,19.63
2023-02-16T18:55:00.846Z,18.95
2023-02-16T18:57:27.261Z,21.33
2023-02-16T18:59:53.635Z,22.02
2023-02-16T19:02:20.167Z,21.67
2023-02-16T19:04:46.706Z,25.05
2023-02-16T19:07:13.178Z,24.63
2023-02-16T19:09:39.587Z,20.85
2023-02-16T19:12:06.051Z,25.23
2023-02-16T19:14:32.450Z,25.88
2023-02-16T19:16:58.858Z,30.40
2023-02-16T19:19:25.246Z,29.50
2023-02-16T19:21:51.684Z,27.98
2023-02-16T19:24:18.156Z,32.63
2023-02-16T19:26:44.713Z,28.48
2023-02-16T19:29:12.733Z,26.73
2023-02-16T19:31:39.405Z,35.75
2023-02-16T19:34:06.362Z,31.65
2023-02-16T19:36:34.163Z,32.95
2023-02-16T19:39:01.399Z,31.20
2023-02-16T19:41:30.860Z,35.70
2023-02-16T19:43:57.594Z,28.08
2023-02-16T19:46:24.362Z,35.00
2023-02-16T19:48:51.250Z,36.00
2023-02-16T19:51:17.863Z,35.05
2023-02-16T19:53:44.927Z,31.13
2023-02-16T19:56:14.213Z,34.67
2023-02-16T19:58:40.746Z,32.90
2023-02-16T20:01:14.897Z,37.20
2023-02-16T20:03:42.039Z,39.47
2023-02-16T20:06:17.281Z,34.05
2023-02-16T20:08:44.574Z,40.03
2023-02-16T20:11:11.308Z,33.88
2023-02-16T20:13:38.398Z,46.00
2023-02-16T20:16:06.861Z,42.70
2023-02-16T20:18:34.741Z,39.97
2023-02-16T20:21:03.380Z,48.25
2023-02-16T20:23:30.806Z,40.55
2023-02-16T20:25:57.774Z,35.65
2023-02-16T20:28:25.172Z,35.40
2023-02-16T20:30:53.376Z,31.20
2023-02-16T20:33:20.219Z,38.25
2023-02-16T20:35:47.432Z,44.45
2023-02-16T20:38:14.453Z,38.78
2023-02-16T20:40:41.421Z,38.92
2023-02-16T20:43:07.865Z,35.33
2023-02-16T20:45:35.245Z,32.58
2023-02-16T20:48:03.915Z,38.30
2023-02-16T20:50:30.351Z,45.83
2023-02-16T20:52:56.769Z,30.02
2023-02-16T20:55:23.257Z,34.20
2023-02-16T20:57:49.698Z,37.20
2023-02-16T21:00:20.082Z,31.92
2023-02-16T21:02:46.640Z,40.47
2023-02-16T21:05:13.734Z,36.97
2023-02-16T21:07:40.238Z,26.08
2023-02-16T21:10:09.849Z,40.33
2023-02-16T21:12:36.334Z,35.85
2023-02-16T21:15:04.143Z,44.67
2023-02-16T21:17:30.520Z,49.70
2023-02-16T21:19:57.202Z,38.53
2023-02-16T21:22:24.724Z,38.35
2023-02-16T21:24:51.976Z,38.58
2023-02-16T21:27:18.568Z,52.35
2023-02-16T21:29:45.127Z,44.10
2023-02-16T21:32:11.723Z,49.92
2023-02-16T21:34:38.274Z,40.50
2023-02-16T21:37:04.769Z,37.40
2023-02-16T21:39:49.706Z,33.33
2023-02-16T21:44:49.908Z,50.08
2023-02-16T21:47:35.521Z,41.55
2023-02-16T21:50:02.035Z,33.20
2023-02-16T21:52:28.418Z,27.65
2023-02-16T21:55:13.234Z,34.13
2023-02-16T22:00:06.532Z,32.55
2023-02-16T22:02:33.533Z,38.03
2023-02-16T22:05:00.011Z,27.20
2023-02-16T22:07:26.456Z,36.05
2023-02-16T22:09:52.896Z,26.27
2023-02-16T22:12:19.271Z,37.85
2023-02-16T22:14:45.789Z,32.28
2023-02-16T22:17:12.229Z,34.80
2023-02-16T22:19:38.630Z,36.30
2023-02-16T22:22:05.045Z,50.85
2023-02-16T22:24:31.518Z,35.47
2023-02-16T22:26:57.925Z,31.90
2023-02-16T22:29:24.362Z,28.98
2023-02-16T22:31:50.830Z,30.25
2023-02-16T22:34:21.264Z,31.08
2023-02-16T22:36:48.289Z,39.58
2023-02-16T22:39:16.446Z,40.55
2023-02-16T22:41:42.938Z,32.80
2023-02-16T22:44:11.268Z,37.40
2023-02-16T22:46:37.799Z,40.30
2023-02-16T22:49:04.222Z,38.47
2023-02-16T22:51:30.886Z,33.25
2023-02-16T22:53:59.620Z,33.53
2023-02-16T22:56:26.940Z,32.17
2023-02-16T22:58:57.164Z,32.63
2023-02-16T23:01:25.501Z,28.35
2023-02-16T23:03:54.136Z,29.75
2023-02-16T23:06:23.817Z,32.90
2023-02-16T23:08:58.645Z,35.30
2023-02-16T23:11:25.780Z,26.52
2023-02-16T23:13:52.354Z,30.77
2023-02-16T23:16:21.906Z,31.45
2023-02-16T23:18:49.371Z,28.27
2023-02-16T23:21:27.106Z,31.80
2023-02-16T23:23:54.654Z,30.35
2023-02-16T23:26:24.889Z,32.45
2023-02-16T23:28:56.687Z,34.45
2023-02-16T23:31:23.304Z,31.35
2023-02-16T23:33:50.958Z,36.60
2023-02-16T23:36:17.518Z,31.33
2023-02-16T23:38:44.010Z,28.23
2023-02-16T23:41:14.945Z,17.75
2023-02-16T23:43:41.759Z,28.10
2023-02-16T23:46:09.049Z,33.92
2023-02-16T23:48:36.135Z,40.00
2023-02-16T23:51:02.596Z,39.17
2023-02-16T23:53:29.205Z,48.05
2023-02-16T23:56:02.654Z,30.60
2023-02-16T23:58:30.530Z,34.47
